createdAt,value
2017-07-15T00:02:16.380Z,10.57
2017-07-15T00:04:43.973Z,10.83
2017-07-15T00:07:11.517Z,8.30
2017-07-15T00:09:39.057Z,3.20
2017-07-15T00:12:06.600Z,10.20
2017-07-15T00:14:34.105Z,12.07
2017-07-15T00:17:01.693Z,7.53
2017-07-15T00:19:29.233Z,10.77
2017-07-15T00:21:56.777Z,9.70
2017-07-15T00:24:24.320Z,13.53
2017-07-15T00:26:51.828Z,12.77
2017-07-15T00:29:19.318Z,9.23
2017-07-15T00:31:46.801Z,11.70
2017-07-15T00:34:14.502Z,11.67
2017-07-15T00:36:42.145Z,14.23
2017-07-15T00:39:09.693Z,11.40
2017-07-15T00:41:37.215Z,12.47
2017-07-15T00:44:04.785Z,12.87
2017-07-15T00:46:32.357Z,12.93
2017-07-15T00:49:00.680Z,7.63
2017-07-15T00:51:28.221Z,6.80
2017-07-15T00:53:55.721Z,14.90
2017-07-15T00:56:23.209Z,13.77
2017-07-15T00:58:50.750Z,15.70
2017-07-15T01:01:18.292Z,12.13
2017-07-15T01:03:45.778Z,8.83
2017-07-15T01:06:13.277Z,9.33
2017-07-15T01:08:40.778Z,8.53
2017-07-15T01:11:08.572Z,8.97
2017-07-15T01:13:36.217Z,11.03
2017-07-15T01:16:03.817Z,13.60
2017-07-15T01:18:32.122Z,13.83
2017-07-15T01:20:59.667Z,11.63
2017-07-15T01:23:27.209Z,17.93
2017-07-15T01:25:54.697Z,10.67
2017-07-15T01:28:22.293Z,13.90
2017-07-15T01:30:50.461Z,10.43
2017-07-15T01:33:18.813Z,26.33
2017-07-15T01:35:46.359Z,14.30
2017-07-15T01:38:13.899Z,12.07
2017-07-15T01:40:41.459Z,16.73
2017-07-15T01:43:09.631Z,8.17
2017-07-15T01:45:37.250Z,17.63
2017-07-15T01:48:04.967Z,11.45
2017-07-15T01:50:32.566Z,10.80
2017-07-15T01:53:00.085Z,12.57
2017-07-15T01:55:27.834Z,20.93
2017-07-15T01:57:55.373Z,14.47
2017-07-15T02:00:22.897Z,9.65
2017-07-15T02:02:50.389Z,10.67
2017-07-15T02:05:17.900Z,14.27
2017-07-15T02:07:45.445Z,10.87
2017-07-15T02:10:12.988Z,15.83
2017-07-15T02:12:40.538Z,11.07
2017-07-15T02:15:08.090Z,12.97
2017-07-15T02:17:35.642Z,14.18
2017-07-15T02:20:03.974Z,11.07
2017-07-15T02:22:31.536Z,20.60
2017-07-15T02:24:59.025Z,10.87
2017-07-15T02:27:26.610Z,22.43
2017-07-15T02:29:54.161Z,14.17
2017-07-15T02:32:21.803Z,20.73
2017-07-15T02:34:49.554Z,11.60
2017-07-15T02:37:17.386Z,17.30
2017-07-15T02:39:44.877Z,13.83
2017-07-15T02:42:12.390Z,10.67
2017-07-15T02:44:39.932Z,17.93
2017-07-15T02:47:07.453Z,16.13
2017-07-15T02:49:34.976Z,18.67
2017-07-15T02:52:02.562Z,19.63
2017-07-15T02:54:30.251Z,19.70
2017-07-15T02:56:57.757Z,15.48
2017-07-15T02:59:25.294Z,20.80
2017-07-15T03:01:52.837Z,18.08
2017-07-15T03:04:20.342Z,18.67
2017-07-15T03:06:48.636Z,11.73
2017-07-15T03:09:16.181Z,13.82
2017-07-15T03:11:43.681Z,13.83
2017-07-15T03:14:11.202Z,9.70
2017-07-15T03:16:38.740Z,13.77
2017-07-15T03:19:06.251Z,17.15
2017-07-15T03:21:34.048Z,13.40
2017-07-15T03:24:01.644Z,14.03
2017-07-15T03:26:41.378Z,18.37
2017-07-15T03:29:08.894Z,8.83
2017-07-15T03:31:37.163Z,13.20
2017-07-15T03:34:04.697Z,12.50
2017-07-15T03:36:32.297Z,17.13
2017-07-15T03:38:59.809Z,11.83
2017-07-15T03:41:27.297Z,11.13
2017-07-15T03:43:54.825Z,10.17
2017-07-15T03:46:22.340Z,10.33
2017-07-15T03:48:49.828Z,13.77
2017-07-15T03:51:17.421Z,14.50
2017-07-15T03:53:44.944Z,10.37
2017-07-15T03:56:12.449Z,10.87
2017-07-15T03:58:39.955Z,15.80
2017-07-15T04:01:07.494Z,9.47
2017-07-15T04:03:35.052Z,14.60
2017-07-15T04:06:02.603Z,15.37
2017-07-15T04:08:30.171Z,9.50
2017-07-15T04:10:57.705Z,20.30
2017-07-15T04:13:25.217Z,10.20
2017-07-15T04:15:52.757Z,8.20
2017-07-15T04:18:20.302Z,13.50
2017-07-15T04:20:47.846Z,8.70
2017-07-15T04:23:15.375Z,18.40
2017-07-15T04:25:42.933Z,10.57
2017-07-15T04:28:10.443Z,8.20
2017-07-15T04:30:38.737Z,8.67
2017-07-15T04:33:06.265Z,8.97
2017-07-15T04:35:34.020Z,9.30
2017-07-15T04:38:01.528Z,18.23
2017-07-15T04:40:29.113Z,11.93
2017-07-15T04:42:56.617Z,14.57
2017-07-15T04:45:24.101Z,9.17
2017-07-15T04:47:51.645Z,11.47
2017-07-15T04:50:22.460Z,17.47
2017-07-15T04:52:49.957Z,11.17
2017-07-15T04:55:18.245Z,10.07
2017-07-15T04:57:45.733Z,11.90
2017-07-15T05:00:13.224Z,8.10
2017-07-15T05:02:40.766Z,14.60
2017-07-15T05:05:08.254Z,8.30
2017-07-15T05:07:35.852Z,15.17
2017-07-15T05:10:03.337Z,14.03
2017-07-15T05:12:30.824Z,10.10
2017-07-15T05:14:58.330Z,8.83
2017-07-15T05:17:25.929Z,11.13
2017-07-15T05:19:53.469Z,9.33
2017-07-15T05:22:21.016Z,16.47
2017-07-15T05:24:48.520Z,9.40
2017-07-15T05:27:16.786Z,11.47
2017-07-15T05:29:45.041Z,14.93
2017-07-15T05:32:13.333Z,8.80
2017-07-15T05:34:40.887Z,13.10
2017-07-15T05:37:08.378Z,10.00
2017-07-15T05:39:35.965Z,20.37
2017-07-15T05:42:03.457Z,13.20
2017-07-15T05:44:31.110Z,11.63
2017-07-15T05:46:58.601Z,11.33
2017-07-15T05:49:26.094Z,13.00
2017-07-15T05:51:53.685Z,12.03
2017-07-15T05:54:21.242Z,10.87
2017-07-15T05:56:48.734Z,6.77
2017-07-15T05:59:16.313Z,13.40
2017-07-15T06:01:43.803Z,9.20
2017-07-15T06:04:11.302Z,14.07
2017-07-15T06:06:38.914Z,10.90
2017-07-15T06:09:06.425Z,8.87
2017-07-15T06:11:33.976Z,8.23
2017-07-15T06:14:01.513Z,12.97
2017-07-15T06:16:29.001Z,13.03
2017-07-15T06:18:56.501Z,11.30
2017-07-15T06:21:23.993Z,7.27
2017-07-15T06:23:51.512Z,5.30
2017-07-15T06:26:19.005Z,12.10
2017-07-15T06:28:47.290Z,5.17
2017-07-15T06:31:14.814Z,10.70
2017-07-15T06:33:43.096Z,9.40
2017-07-15T06:36:10.585Z,7.30
2017-07-15T06:38:38.109Z,6.23
2017-07-15T06:41:05.726Z,9.50
2017-07-15T06:43:33.260Z,8.87
2017-07-15T06:46:00.813Z,14.60
2017-07-15T06:48:28.301Z,10.03
2017-07-15T06:50:55.792Z,9.17
2017-07-15T06:53:23.339Z,14.13
2017-07-15T06:55:50.885Z,8.40
2017-07-15T06:58:18.433Z,10.50
2017-07-15T07:00:45.970Z,14.33
2017-07-15T07:03:13.470Z,16.03
2017-07-15T07:05:40.957Z,8.00
2017-07-15T07:08:08.463Z,16.27
2017-07-15T07:10:35.960Z,9.60
2017-07-15T07:13:04.257Z,11.33
2017-07-15T07:15:31.745Z,12.43
2017-07-15T07:17:59.393Z,7.47
2017-07-15T07:20:27.171Z,9.30
2017-07-15T07:22:54.716Z,8.40
2017-07-15T07:25:22.263Z,11.83
2017-07-15T07:27:49.811Z,14.00
2017-07-15T07:30:17.353Z,6.63
2017-07-15T07:32:44.900Z,15.03
2017-07-15T07:35:12.635Z,11.57
2017-07-15T07:37:40.126Z,9.30
2017-07-15T07:40:07.615Z,8.90
2017-07-15T07:42:35.171Z,11.73
2017-07-15T07:45:02.672Z,7.27
2017-07-15T07:47:30.169Z,12.70
2017-07-15T07:49:57.902Z,12.13
2017-07-15T07:52:25.446Z,16.10
2017-07-15T07:54:52.951Z,8.47
2017-07-15T07:57:20.467Z,7.17
2017-07-15T07:59:48.033Z,5.90
2017-07-15T08:02:15.525Z,6.20
2017-07-15T08:04:43.058Z,8.93
2017-07-15T08:07:10.771Z,6.67
2017-07-15T08:09:38.257Z,7.10
2017-07-15T08:12:05.752Z,7.17
2017-07-15T08:14:33.261Z,10.97
2017-07-15T08:17:00.790Z,8.87
2017-07-15T08:19:28.335Z,12.87
2017-07-15T08:21:56.081Z,3.83
2017-07-15T08:24:23.574Z,5.50
2017-07-15T08:26:51.165Z,4.10
2017-07-15T08:29:18.676Z,7.73
2017-07-15T08:31:46.160Z,7.27
2017-07-15T08:34:13.649Z,6.60
2017-07-15T08:36:41.350Z,6.70
2017-07-15T08:39:09.340Z,6.83
2017-07-15T08:41:36.821Z,3.33
2017-07-15T08:44:05.194Z,9.40
2017-07-15T08:46:32.681Z,5.23
2017-07-15T08:49:00.181Z,13.30
2017-07-15T08:51:27.705Z,5.70
2017-07-15T08:53:55.957Z,8.10
2017-07-15T08:56:24.205Z,7.30
2017-07-15T08:58:51.730Z,6.47
2017-07-15T09:01:19.229Z,7.43
2017-07-15T09:03:46.783Z,3.73
2017-07-15T09:06:14.322Z,7.57
2017-07-15T09:08:41.861Z,3.87
2017-07-15T09:11:09.340Z,5.10
2017-07-15T09:13:36.845Z,5.80
2017-07-15T09:16:04.335Z,7.93
2017-07-15T09:18:31.813Z,7.50
2017-07-15T09:21:00.337Z,4.40
2017-07-15T09:23:27.829Z,7.33
2017-07-15T09:25:55.384Z,4.30
2017-07-15T09:28:22.925Z,5.30
2017-07-15T09:30:50.421Z,8.63
2017-07-15T09:33:18.020Z,3.40
2017-07-15T09:35:45.526Z,13.20
2017-07-15T09:38:13.773Z,4.43
2017-07-15T09:40:41.466Z,4.93
2017-07-15T09:43:09.006Z,1.80
2017-07-15T09:45:36.494Z,4.00
2017-07-15T09:48:03.989Z,4.30
2017-07-15T09:50:31.539Z,5.13
2017-07-15T09:52:59.073Z,7.70
2017-07-15T09:55:26.561Z,4.07
2017-07-15T09:57:54.069Z,5.93
2017-07-15T10:00:21.837Z,3.47
2017-07-15T10:02:49.357Z,2.80
2017-07-15T10:05:16.851Z,3.97
2017-07-15T10:07:44.441Z,7.27
2017-07-15T10:10:11.934Z,4.37
2017-07-15T10:12:39.419Z,4.60
2017-07-15T10:15:06.973Z,6.23
2017-07-15T10:17:34.509Z,6.33
2017-07-15T10:20:01.988Z,5.80
2017-07-15T10:22:29.704Z,5.70
2017-07-15T10:24:57.205Z,4.10
2017-07-15T10:27:24.949Z,5.03
2017-07-15T10:29:52.532Z,2.50
2017-07-15T10:32:20.078Z,7.57
2017-07-15T10:34:47.577Z,6.87
2017-07-15T10:37:15.177Z,7.03
2017-07-15T10:39:42.709Z,3.27
2017-07-15T10:42:10.191Z,5.03
2017-07-15T10:44:37.714Z,3.20
2017-07-15T10:47:05.205Z,6.73
2017-07-15T10:49:33.492Z,4.60
2017-07-15T10:52:01.041Z,2.17
2017-07-15T10:54:28.585Z,3.00
2017-07-15T10:56:56.066Z,2.80
2017-07-15T10:59:23.773Z,7.00
2017-07-15T11:01:51.262Z,3.87
2017-07-15T11:04:18.757Z,4.80
2017-07-15T11:06:46.308Z,4.60
2017-07-15T11:09:13.841Z,1.97
2017-07-15T11:11:41.390Z,3.20
2017-07-15T11:14:08.916Z,4.00
2017-07-15T11:16:37.171Z,6.67
2017-07-15T11:19:05.449Z,3.27
2017-07-15T11:21:32.959Z,4.27
2017-07-15T11:24:00.537Z,4.30
2017-07-15T11:26:28.021Z,4.20
2017-07-15T11:28:55.734Z,2.70
2017-07-15T11:31:23.230Z,6.30
2017-07-15T11:33:50.718Z,5.17
2017-07-15T11:36:18.261Z,3.87
2017-07-15T11:38:45.831Z,3.33
2017-07-15T11:41:13.347Z,3.17
2017-07-15T11:43:40.843Z,4.03
2017-07-15T11:46:08.433Z,8.40
2017-07-15T11:48:35.968Z,2.97
2017-07-15T11:51:04.228Z,3.47
2017-07-15T11:53:31.782Z,2.90
2017-07-15T11:55:59.333Z,2.43
2017-07-15T11:58:26.822Z,3.57
2017-07-15T12:00:54.305Z,3.20
2017-07-15T12:03:21.848Z,2.30
2017-07-15T12:05:49.395Z,3.67
2017-07-15T12:08:16.906Z,2.30
2017-07-15T12:10:44.389Z,3.57
2017-07-15T12:13:11.926Z,4.83
2017-07-15T12:15:39.489Z,2.07
2017-07-15T12:18:07.009Z,2.13
2017-07-15T12:20:34.552Z,2.90
2017-07-15T12:23:02.056Z,4.37
2017-07-15T12:25:29.533Z,2.60
2017-07-15T12:27:57.092Z,3.33
2017-07-15T12:30:24.793Z,5.03
2017-07-15T12:32:52.277Z,2.40
2017-07-15T12:35:19.885Z,2.50
2017-07-15T12:37:48.174Z,1.70
2017-07-15T12:40:15.680Z,1.70
2017-07-15T12:42:43.161Z,1.87
2017-07-15T12:45:10.657Z,3.70
2017-07-15T12:47:38.166Z,1.87
2017-07-15T12:50:05.877Z,4.10
2017-07-15T12:52:34.157Z,5.20
2017-07-15T12:55:01.641Z,4.03
2017-07-15T12:57:29.241Z,3.83
2017-07-15T12:59:56.725Z,5.70
2017-07-15T13:02:24.329Z,4.93
2017-07-15T13:04:52.788Z,3.90
2017-07-15T13:07:20.294Z,3.33
2017-07-15T13:09:47.806Z,2.63
2017-07-15T13:12:15.328Z,1.83
2017-07-15T13:14:42.857Z,4.67
2017-07-15T13:17:10.404Z,2.53
2017-07-15T13:19:37.969Z,3.90
2017-07-15T13:22:05.613Z,3.17
2017-07-15T13:24:33.096Z,3.43
2017-07-15T13:27:00.785Z,1.90
2017-07-15T13:29:28.327Z,1.67
2017-07-15T13:31:55.879Z,2.60
2017-07-15T13:34:23.417Z,3.50
2017-07-15T13:36:50.966Z,2.50
2017-07-15T13:39:18.462Z,3.57
2017-07-15T13:41:45.949Z,2.00
2017-07-15T13:44:13.453Z,2.67
2017-07-15T13:46:40.944Z,4.17
2017-07-15T13:49:08.433Z,2.60
2017-07-15T13:51:35.928Z,3.87
2017-07-15T13:54:03.411Z,4.50
2017-07-15T13:56:30.926Z,2.80
2017-07-15T13:58:58.414Z,5.23
2017-07-15T14:01:26.861Z,5.73
2017-07-15T14:03:54.454Z,3.80
2017-07-15T14:06:21.988Z,3.33
2017-07-15T14:08:49.741Z,2.20
2017-07-15T14:11:17.594Z,4.70
2017-07-15T14:13:45.142Z,6.27
2017-07-15T14:16:12.683Z,1.73
2017-07-15T14:18:40.174Z,3.17
2017-07-15T14:21:07.770Z,2.20
2017-07-15T14:23:35.314Z,4.20
2017-07-15T14:26:02.854Z,2.40
2017-07-15T14:28:30.402Z,2.03
2017-07-15T14:30:57.886Z,3.90
2017-07-15T14:33:25.591Z,3.03
2017-07-15T14:35:53.085Z,4.83
2017-07-15T14:38:20.685Z,2.23
2017-07-15T14:40:48.291Z,1.87
2017-07-15T14:43:16.542Z,2.93
2017-07-15T14:45:44.030Z,2.73
2017-07-15T14:48:11.577Z,3.80
2017-07-15T14:50:39.109Z,3.30
2017-07-15T14:53:06.649Z,5.00
2017-07-15T14:55:34.198Z,2.50
2017-07-15T14:58:01.741Z,3.47
2017-07-15T15:00:29.278Z,4.57
2017-07-15T15:02:56.830Z,2.67
2017-07-15T15:05:24.498Z,2.00
2017-07-15T15:07:51.995Z,2.67
2017-07-15T15:10:20.285Z,2.53
2017-07-15T15:12:48.026Z,2.00
2017-07-15T15:15:15.509Z,2.67
2017-07-15T15:17:43.014Z,2.03
2017-07-15T15:20:10.704Z,2.97
2017-07-15T15:22:38.188Z,2.70
2017-07-15T15:25:05.739Z,2.50
2017-07-15T15:27:33.272Z,2.97
2017-07-15T15:30:00.830Z,1.43
2017-07-15T15:32:28.372Z,2.00
2017-07-15T15:34:56.124Z,4.80
2017-07-15T15:37:23.605Z,1.77
2017-07-15T15:39:51.198Z,2.20
2017-07-15T15:42:18.790Z,1.30
2017-07-15T15:44:46.301Z,1.73
2017-07-15T15:47:14.049Z,4.30
2017-07-15T15:49:41.532Z,1.30
2017-07-15T15:52:09.030Z,2.80
2017-07-15T15:54:36.866Z,2.87
2017-07-15T15:57:04.353Z,5.30
2017-07-15T15:59:31.832Z,3.50
2017-07-15T16:02:00.121Z,9.27
2017-07-15T16:04:27.610Z,2.07
2017-07-15T16:06:55.094Z,2.60
2017-07-15T16:09:22.593Z,3.73
2017-07-15T16:11:50.085Z,2.13
2017-07-15T16:14:17.837Z,1.60
2017-07-15T16:16:45.382Z,2.20
2017-07-15T16:19:12.865Z,1.53
2017-07-15T16:21:40.384Z,1.80
2017-07-15T16:24:07.912Z,4.00
2017-07-15T16:26:35.474Z,1.27
2017-07-15T16:29:03.200Z,2.23
2017-07-15T16:31:30.749Z,1.20
2017-07-15T16:33:58.238Z,2.03
2017-07-15T16:36:25.836Z,2.17
2017-07-15T16:38:53.377Z,4.63
2017-07-15T16:41:20.917Z,1.40
2017-07-15T16:43:48.404Z,3.37
2017-07-15T16:46:15.921Z,4.90
2017-07-15T16:48:43.421Z,27.97
2017-07-15T16:51:11.673Z,9.80
2017-07-15T16:53:39.197Z,6.57
2017-07-15T16:56:06.685Z,2.83
2017-07-15T16:58:34.238Z,6.37
2017-07-15T17:01:01.852Z,2.50
2017-07-15T17:03:30.145Z,3.93
2017-07-15T17:05:57.705Z,6.20
2017-07-15T17:08:25.434Z,2.37
2017-07-15T17:10:52.921Z,7.80
2017-07-15T17:13:20.406Z,2.83
2017-07-15T17:15:48.774Z,1.30
2017-07-15T17:18:16.325Z,1.60
2017-07-15T17:20:43.809Z,6.63
2017-07-15T17:23:11.313Z,2.47
2017-07-15T17:25:38.861Z,4.73
2017-07-15T17:28:06.402Z,1.50
2017-07-15T17:30:33.946Z,1.30
2017-07-15T17:33:01.428Z,3.63
2017-07-15T17:35:29.131Z,1.30
2017-07-15T17:37:56.673Z,2.23
2017-07-15T17:40:24.161Z,1.30
2017-07-15T17:42:51.765Z,2.20
2017-07-15T17:45:19.306Z,1.60
2017-07-15T17:47:46.853Z,2.73
2017-07-15T17:50:14.365Z,2.50
2017-07-15T17:52:42.653Z,1.67
2017-07-15T17:55:10.196Z,4.10
2017-07-15T17:57:37.852Z,3.70
2017-07-15T18:00:05.342Z,2.63
2017-07-15T18:02:32.926Z,1.50
2017-07-15T18:05:00.417Z,2.60
2017-07-15T18:07:27.920Z,2.90
2017-07-15T18:09:55.446Z,2.13
2017-07-15T18:12:22.941Z,1.57
2017-07-15T18:14:50.436Z,3.13
2017-07-15T18:17:18.096Z,5.57
2017-07-15T18:19:45.630Z,1.33
2017-07-15T18:22:13.172Z,2.37
2017-07-15T18:24:40.717Z,3.40
2017-07-15T18:27:08.262Z,4.67
2017-07-15T18:29:35.806Z,2.30
2017-07-15T18:32:03.350Z,7.93
2017-07-15T18:34:30.836Z,4.30
2017-07-15T18:36:58.348Z,3.13
2017-07-15T18:39:25.837Z,2.50
2017-07-15T18:41:53.425Z,4.00
2017-07-15T18:44:20.962Z,2.87
2017-07-15T18:46:48.505Z,4.83
2017-07-15T18:49:16.048Z,5.50
2017-07-15T18:51:43.595Z,3.47
2017-07-15T18:54:11.100Z,2.60
2017-07-15T18:56:38.588Z,2.10
2017-07-15T18:59:08.332Z,2.87
2017-07-15T19:01:36.048Z,4.63
2017-07-15T19:04:03.539Z,6.50
2017-07-15T19:06:31.786Z,3.20
2017-07-15T19:08:59.301Z,8.70
2017-07-15T19:11:26.790Z,16.63
2017-07-15T19:13:55.069Z,6.67
2017-07-15T19:16:22.604Z,7.33
2017-07-15T19:18:50.973Z,3.77
2017-07-15T19:21:18.494Z,5.07
2017-07-15T19:23:46.785Z,3.20
2017-07-15T19:26:14.350Z,4.30
2017-07-15T19:28:41.874Z,2.37
2017-07-15T19:31:09.373Z,2.20
2017-07-15T19:33:36.953Z,5.17
2017-07-15T19:36:04.457Z,2.20
2017-07-15T19:38:31.943Z,3.00
2017-07-15T19:40:59.481Z,3.60
2017-07-15T19:43:27.021Z,6.33
2017-07-15T19:45:55.053Z,6.90
2017-07-15T19:48:22.622Z,4.60
2017-07-15T19:50:50.603Z,5.23
2017-07-15T19:53:19.070Z,2.37
2017-07-15T19:55:46.916Z,3.80
2017-07-15T19:58:14.448Z,6.00
2017-07-15T20:00:41.975Z,9.80
2017-07-15T20:03:10.806Z,4.90
2017-07-15T20:05:40.249Z,4.37
2017-07-15T20:08:07.781Z,3.50
2017-07-15T20:10:35.330Z,4.00
2017-07-15T20:13:02.870Z,3.57
2017-07-15T20:15:30.357Z,3.67
2017-07-15T20:17:57.949Z,3.60
2017-07-15T20:20:25.446Z,3.23
2017-07-15T20:22:52.933Z,2.40
2017-07-15T20:25:20.609Z,2.43
2017-07-15T20:27:48.097Z,3.47
2017-07-15T20:30:15.584Z,3.53
2017-07-15T20:32:43.117Z,3.37
2017-07-15T20:35:10.657Z,4.50
2017-07-15T20:37:38.142Z,3.80
2017-07-15T20:40:05.742Z,3.07
2017-07-15T20:42:33.224Z,4.30
2017-07-15T20:45:00.726Z,4.67
2017-07-15T20:47:28.226Z,9.10
2017-07-15T20:49:55.715Z,9.57
2017-07-15T20:52:29.193Z,9.30
2017-07-15T20:54:56.709Z,5.83
2017-07-15T20:57:24.981Z,8.43
2017-07-15T20:59:52.500Z,4.50
2017-07-15T21:02:19.986Z,3.73
2017-07-15T21:04:47.476Z,3.87
2017-07-15T21:07:14.995Z,3.50
2017-07-15T21:09:42.483Z,4.73
2017-07-15T21:12:10.765Z,4.37
2017-07-15T21:14:38.314Z,3.15
2017-07-15T21:17:06.062Z,4.47
2017-07-15T21:19:33.545Z,4.40
2017-07-15T21:22:01.045Z,3.50
2017-07-15T21:24:28.593Z,5.40
2017-07-15T21:26:56.133Z,3.30
2017-07-15T21:29:23.682Z,4.80
2017-07-15T21:31:51.229Z,3.87
2017-07-15T21:34:18.718Z,3.47
2017-07-15T21:36:46.201Z,4.03
2017-07-15T21:39:13.749Z,2.97
2017-07-15T21:41:41.291Z,5.17
2017-07-15T21:44:08.782Z,4.30
2017-07-15T21:46:36.381Z,5.73
2017-07-15T21:49:03.880Z,3.97
2017-07-15T21:51:31.377Z,4.43
2017-07-15T21:53:58.900Z,3.17
2017-07-15T21:56:26.454Z,5.30
2017-07-15T21:58:53.947Z,5.20
2017-07-15T22:01:21.457Z,8.40
2017-07-15T22:03:48.937Z,3.83
2017-07-15T22:06:16.422Z,4.10
2017-07-15T22:08:44.171Z,5.63
2017-07-15T22:11:11.661Z,3.13
2017-07-15T22:13:39.149Z,3.20
2017-07-15T22:16:06.700Z,5.93
2017-07-15T22:18:34.241Z,2.50
2017-07-15T22:21:01.731Z,3.50
2017-07-15T22:23:29.229Z,5.17
2017-07-15T22:25:56.769Z,6.20
2017-07-15T22:28:24.252Z,6.33
2017-07-15T22:30:51.746Z,6.07
2017-07-15T22:33:19.238Z,7.07
2017-07-15T22:35:46.738Z,7.60
2017-07-15T22:38:14.281Z,6.23
2017-07-15T22:40:41.825Z,7.13
2017-07-15T22:43:09.365Z,6.53
2017-07-15T22:45:36.853Z,4.97
2017-07-15T22:48:04.378Z,6.80
2017-07-15T22:50:31.893Z,5.60
2017-07-15T22:52:59.373Z,4.67
2017-07-15T22:55:26.917Z,8.53
2017-07-15T22:57:54.390Z,5.10
2017-07-15T23:00:22.645Z,6.73
2017-07-15T23:02:50.229Z,7.67
2017-07-15T23:05:17.790Z,5.53
2017-07-15T23:07:45.277Z,5.50
2017-07-15T23:10:12.997Z,7.33
2017-07-15T23:12:40.478Z,5.23
2017-07-15T23:15:08.729Z,5.20
2017-07-15T23:17:36.226Z,5.93
2017-07-15T23:20:03.921Z,7.43
2017-07-15T23:22:31.497Z,16.10
2017-07-15T23:24:59.037Z,6.00
2017-07-15T23:27:26.553Z,6.07
2017-07-15T23:29:55.997Z,7.43
2017-07-15T23:32:24.419Z,8.07
2017-07-15T23:34:52.185Z,11.07
2017-07-15T23:37:19.674Z,7.93
2017-07-15T23:39:47.168Z,9.33
2017-07-15T23:42:14.709Z,6.50
2017-07-15T23:44:42.257Z,8.00
2017-07-15T23:47:09.785Z,6.93
2017-07-15T23:49:38.062Z,7.57
2017-07-15T23:52:05.601Z,7.37
2017-07-15T23:54:33.348Z,8.77
2017-07-15T23:57:00.836Z,7.70
2017-07-15T23:59:28.333Z,13.70
